createdAt,value
2019-02-05T00:00:40.063Z,84.07
2019-02-05T00:03:11.602Z,84.18
2019-02-05T00:05:41.865Z,84.28
2019-02-05T00:08:12.274Z,84.34
2019-02-05T00:10:44.044Z,84.38
2019-02-05T00:13:17.544Z,84.44
2019-02-05T00:15:49.567Z,84.47
2019-02-05T00:18:21.488Z,84.55
2019-02-05T00:20:52.060Z,84.64
2019-02-05T00:23:22.540Z,84.64
2019-02-05T00:26:05.869Z,84.69
2019-02-05T00:28:32.713Z,84.73
2019-02-05T00:31:06.728Z,84.77
2019-02-05T00:33:37.109Z,84.78
2019-02-05T00:36:07.733Z,84.83
2019-02-05T00:38:38.219Z,84.85
2019-02-05T00:41:08.623Z,84.89
2019-02-05T00:43:39.052Z,84.92
2019-02-05T00:46:21.938Z,84.93
2019-02-05T00:48:42.987Z,84.97
2019-02-05T00:51:17.056Z,84.97
2019-02-05T00:53:49.170Z,85.00
2019-02-05T00:56:20.122Z,85.00
2019-02-05T00:58:50.599Z,85.01
2019-02-05T01:01:23.555Z,85.02
2019-02-05T01:03:56.844Z,85.03
2019-02-05T01:06:50.679Z,85.06
2019-02-05T01:09:27.781Z,85.06
2019-02-05T01:12:00.458Z,85.08
2019-02-05T01:14:31.789Z,85.08
2019-02-05T01:17:05.928Z,85.07
2019-02-05T01:19:37.399Z,85.07
2019-02-05T01:22:08.133Z,85.09
2019-02-05T01:24:38.427Z,85.09
2019-02-05T01:27:08.755Z,85.12
2019-02-05T01:29:42.452Z,85.13
2019-02-05T01:32:18.814Z,85.15
2019-02-05T01:34:54.218Z,85.15
2019-02-05T01:37:45.126Z,85.17
2019-02-05T01:40:17.406Z,85.19
2019-02-05T01:42:53.984Z,85.20
2019-02-05T01:45:31.903Z,85.24
2019-02-05T01:48:07.708Z,85.26
2019-02-05T01:50:38.297Z,85.27
2019-02-05T01:53:09.607Z,85.28
2019-02-05T01:55:39.986Z,85.30
2019-02-05T01:58:11.211Z,85.33
2019-02-05T02:00:47.955Z,85.34
2019-02-05T02:03:28.037Z,85.37
2019-02-05T02:06:07.268Z,85.40
2019-02-05T02:08:55.326Z,85.41
2019-02-05T02:11:35.495Z,85.42
2019-02-05T02:14:10.272Z,85.45
2019-02-05T02:16:47.546Z,85.47
2019-02-05T02:19:21.192Z,85.50
2019-02-05T02:22:01.427Z,85.52
2019-02-05T02:24:41.792Z,85.55
2019-02-05T02:27:15.569Z,85.55
2019-02-05T02:29:47.561Z,85.59
2019-02-05T02:32:21.230Z,85.61
2019-02-05T02:35:13.971Z,85.64
2019-02-05T02:38:09.591Z,85.64
2019-02-05T02:40:39.909Z,85.68
2019-02-05T02:43:19.728Z,85.70
2019-02-05T02:45:52.871Z,85.70
2019-02-05T02:48:25.218Z,85.70
2019-02-05T02:51:03.267Z,85.74
2019-02-05T02:53:28.127Z,85.77
2019-02-05T02:56:02.642Z,85.78
2019-02-05T02:58:33.251Z,85.78
2019-02-05T03:01:04.940Z,85.80
2019-02-05T03:03:39.627Z,85.82
2019-02-05T03:09:06.399Z,85.85
2019-02-05T03:18:59.037Z,85.92
2019-02-05T03:21:33.986Z,85.93
2019-02-05T03:24:09.647Z,85.94
2019-02-05T03:27:02.205Z,85.96
2019-02-05T03:29:38.343Z,85.96
2019-02-05T03:32:11.252Z,85.99
2019-02-05T03:34:43.479Z,86.01
2019-02-05T03:37:13.929Z,86.02
2019-02-05T03:39:44.522Z,86.03
2019-02-05T03:42:17.107Z,86.02
2019-02-05T03:45:08.747Z,86.04
2019-02-05T03:47:40.810Z,86.01
2019-02-05T03:50:12.413Z,86.04
2019-02-05T03:52:54.505Z,86.04
2019-02-05T03:55:49.307Z,86.04
2019-02-05T03:58:47.176Z,86.06
2019-02-05T04:01:53.877Z,86.06
2019-02-05T04:05:08.625Z,86.06
2019-02-05T04:08:31.119Z,86.08
2019-02-05T04:11:52.395Z,86.09
2019-02-05T04:15:05.482Z,86.10
2019-02-05T04:18:24.806Z,86.06
2019-02-05T04:21:36.322Z,86.10
2019-02-05T04:24:54.279Z,86.11
2019-02-05T04:28:00.734Z,86.10
2019-02-05T04:31:04.721Z,86.10
2019-02-05T04:34:04.014Z,86.12
2019-02-05T04:37:33.737Z,86.12
2019-02-05T04:40:34.791Z,86.13
2019-02-05T04:43:26.204Z,86.13
2019-02-05T04:46:33.885Z,86.13
2019-02-05T04:49:41.061Z,86.14
2019-02-05T04:53:07.907Z,86.17
2019-02-05T04:56:20.548Z,86.17
2019-02-05T04:59:27.259Z,86.18
2019-02-05T05:02:47.042Z,86.17
2019-02-05T05:06:01.918Z,86.17
2019-02-05T05:08:57.273Z,86.16
2019-02-05T05:11:29.326Z,86.17
2019-02-05T05:14:01.291Z,86.15
2019-02-05T05:16:31.806Z,86.16
2019-02-05T05:19:03.425Z,86.17
2019-02-05T05:21:34.767Z,86.16
2019-02-05T05:24:12.154Z,85.33
2019-02-05T05:26:45.761Z,85.33
2019-02-05T05:29:43.238Z,86.15
2019-02-05T05:32:23.525Z,86.14
2019-02-05T05:34:56.233Z,86.13
2019-02-05T05:37:30.546Z,86.13
2019-02-05T05:40:15.337Z,86.13
2019-02-05T05:43:10.373Z,86.12
2019-02-05T05:45:27.000Z,86.14
2019-02-05T05:47:59.118Z,86.12
2019-02-05T05:50:29.850Z,86.11
2019-02-05T05:53:00.337Z,86.10
2019-02-05T05:55:32.382Z,86.07
2019-02-05T05:58:06.685Z,86.09
2019-02-05T06:00:39.661Z,86.08
2019-02-05T06:03:20.981Z,86.06
2019-02-05T06:06:22.048Z,86.07
2019-02-05T06:08:34.271Z,86.07
2019-02-05T06:11:07.450Z,86.06
2019-02-05T06:13:38.247Z,86.06
2019-02-05T06:16:08.846Z,86.02
2019-02-05T06:18:39.325Z,86.04
2019-02-05T06:21:10.035Z,86.04
2019-02-05T06:23:47.438Z,86.05
2019-02-05T06:26:20.220Z,86.01
2019-02-05T06:28:51.908Z,86.02
2019-02-05T06:32:06.173Z,86.01
2019-02-05T06:34:39.273Z,86.00
2019-02-05T06:36:51.996Z,86.01
2019-02-05T06:39:22.781Z,86.00
2019-02-05T06:41:53.123Z,86.00
2019-02-05T06:44:23.441Z,86.00
2019-02-05T06:46:54.115Z,86.00
2019-02-05T06:49:29.202Z,86.00
2019-02-05T06:52:01.011Z,85.98
2019-02-05T06:54:42.960Z,86.00
2019-02-05T06:57:38.927Z,85.99
2019-02-05T07:00:17.817Z,85.99
2019-02-05T07:03:03.970Z,85.99
2019-02-05T07:05:31.317Z,85.97
2019-02-05T07:08:07.829Z,85.98
2019-02-05T07:10:48.545Z,85.99
2019-02-05T07:13:23.760Z,85.97
2019-02-05T07:15:55.256Z,85.99
2019-02-05T07:18:27.115Z,85.98
2019-02-05T07:20:57.594Z,85.97
2019-02-05T07:23:28.206Z,85.96
2019-02-05T07:25:58.852Z,85.96
2019-02-05T07:28:38.118Z,85.96
2019-02-05T07:31:11.120Z,85.95
2019-02-05T07:33:43.645Z,85.96
2019-02-05T07:36:14.248Z,85.97
2019-02-05T07:38:44.621Z,86.07
2019-02-05T07:41:15.294Z,85.98
2019-02-05T07:43:45.710Z,85.99
2019-02-05T07:46:18.335Z,85.98
2019-02-05T07:48:51.161Z,85.99
2019-02-05T07:51:23.222Z,85.99
2019-02-05T07:54:19.336Z,85.98
2019-02-05T07:57:00.019Z,85.96
2019-02-05T07:59:37.825Z,85.96
2019-02-05T08:02:11.968Z,85.95
2019-02-05T08:04:49.838Z,85.93
2019-02-05T08:07:53.607Z,85.92
2019-02-05T08:10:29.691Z,85.92
2019-02-05T08:13:00.498Z,85.91
2019-02-05T08:15:36.416Z,85.92
2019-02-05T08:18:08.459Z,85.90
2019-02-05T08:20:38.715Z,85.85
2019-02-05T08:23:09.411Z,85.83
2019-02-05T08:25:39.709Z,85.80
2019-02-05T08:28:11.363Z,85.80
2019-02-05T08:30:46.243Z,85.76
2019-02-05T08:33:27.288Z,85.73
2019-02-05T08:36:17.316Z,85.66
2019-02-05T08:38:50.057Z,85.56
2019-02-05T08:41:25.328Z,85.52
2019-02-05T08:44:02.232Z,85.40
2019-02-05T08:46:53.321Z,85.33
2019-02-05T08:49:21.812Z,85.21
2019-02-05T08:51:53.830Z,85.10
2019-02-05T08:54:24.404Z,84.88
2019-02-05T08:56:54.676Z,84.52
2019-02-05T08:59:24.929Z,84.19
2019-02-05T09:01:57.189Z,83.69
2019-02-05T09:04:39.238Z,82.95
2019-02-05T09:07:11.144Z,82.95
2019-02-05T09:09:39.853Z,82.62
2019-02-05T09:12:10.278Z,82.12
2019-02-05T09:14:40.751Z,81.63
2019-02-05T09:17:11.180Z,81.13
2019-02-05T09:19:42.612Z,80.42
2019-02-05T09:22:16.691Z,80.05
2019-02-05T09:24:50.424Z,79.58
2019-02-05T09:27:35.526Z,79.13
2019-02-05T09:30:18.429Z,78.50
2019-02-05T09:33:01.928Z,78.16
2019-02-05T09:35:32.600Z,78.11
2019-02-05T09:38:04.842Z,77.71
2019-02-05T09:40:37.925Z,77.88
2019-02-05T09:43:08.464Z,77.57
2019-02-05T09:45:40.610Z,77.50
2019-02-05T09:48:11.379Z,77.22
2019-02-05T09:50:45.285Z,76.86
2019-02-05T09:53:18.713Z,77.22
2019-02-05T09:56:02.784Z,77.56
2019-02-05T09:58:39.463Z,77.25
2019-02-05T10:01:17.765Z,77.07
2019-02-05T10:03:48.675Z,77.47
2019-02-05T10:06:19.874Z,77.88
2019-02-05T10:08:50.199Z,78.09
2019-02-05T10:11:22.772Z,78.11
2019-02-05T10:13:53.064Z,77.89
2019-02-05T10:19:10.641Z,77.64
2019-02-05T10:22:06.166Z,77.81
2019-02-05T10:24:40.658Z,77.73
2019-02-05T10:27:14.654Z,77.39
2019-02-05T10:29:59.273Z,76.76
2019-02-05T10:32:29.745Z,76.92
2019-02-05T10:35:04.280Z,76.64
2019-02-05T10:37:41.320Z,76.24
2019-02-05T10:40:08.459Z,75.83
2019-02-05T10:42:40.238Z,75.83
2019-02-05T10:45:11.947Z,75.61
2019-02-05T10:47:42.257Z,75.76
2019-02-05T10:50:19.983Z,75.45
2019-02-05T10:52:56.815Z,74.95
2019-02-05T10:55:29.791Z,75.13
2019-02-05T10:58:05.103Z,74.93
2019-02-05T11:00:50.407Z,75.29
2019-02-05T11:03:29.248Z,75.13
2019-02-05T11:06:07.339Z,75.02
2019-02-05T11:08:38.955Z,75.25
2019-02-05T11:11:16.040Z,74.83
2019-02-05T11:13:53.736Z,73.95
2019-02-05T11:16:31.731Z,73.98
2019-02-05T11:19:03.794Z,74.38
2019-02-05T11:21:37.328Z,73.59
2019-02-05T11:24:07.920Z,73.15
2019-02-05T11:26:38.503Z,73.29
2019-02-05T11:29:08.875Z,73.04
2019-02-05T11:31:41.287Z,72.63
2019-02-05T11:34:12.587Z,72.76
2019-02-05T11:36:44.548Z,72.34
2019-02-05T11:39:16.670Z,72.50
2019-02-05T11:41:54.986Z,71.97
2019-02-05T11:44:35.443Z,72.45
2019-02-05T11:47:24.883Z,73.02
2019-02-05T11:50:03.462Z,73.09
2019-02-05T11:52:38.377Z,72.13
2019-02-05T11:55:31.732Z,72.22
2019-02-05T11:58:15.943Z,71.23
2019-02-05T12:01:09.243Z,71.89
2019-02-05T12:04:16.363Z,71.69
2019-02-05T12:06:22.524Z,72.05
2019-02-05T12:09:06.108Z,72.06
2019-02-05T12:11:41.145Z,72.02
2019-02-05T12:14:24.736Z,71.48
2019-02-05T12:17:10.582Z,72.12
2019-02-05T12:20:03.518Z,72.73
2019-02-05T12:22:40.109Z,72.52
2019-02-05T12:25:37.599Z,72.59
2019-02-05T12:28:36.437Z,72.33
2019-02-05T12:31:11.544Z,72.08
2019-02-05T12:33:58.428Z,71.94
2019-02-05T12:36:44.262Z,72.02
2019-02-05T12:39:41.343Z,72.72
2019-02-05T12:42:28.296Z,73.11
2019-02-05T12:45:10.311Z,72.82
2019-02-05T12:47:46.834Z,72.94
2019-02-05T12:50:29.061Z,72.79
2019-02-05T12:53:12.822Z,72.89
2019-02-05T12:55:50.962Z,72.89
2019-02-05T12:58:26.711Z,72.80
2019-02-05T13:01:15.224Z,72.67
2019-02-05T13:04:00.058Z,72.75
2019-02-05T13:10:08.553Z,72.22
2019-02-05T13:13:05.283Z,71.99
2019-02-05T13:19:56.699Z,71.60
2019-02-05T13:22:41.600Z,71.68
2019-02-05T13:25:55.728Z,72.31
2019-02-05T13:29:07.845Z,72.35
2019-02-05T13:32:07.584Z,72.47
2019-02-05T13:35:08.780Z,72.47
2019-02-05T13:37:59.350Z,72.16
2019-02-05T13:45:02.024Z,71.96
2019-02-05T13:47:09.549Z,71.49
2019-02-05T13:56:12.604Z,71.78
2019-02-05T13:58:43.386Z,71.63
2019-02-05T14:01:20.056Z,71.70
2019-02-05T14:04:11.978Z,71.69
2019-02-05T14:06:51.496Z,71.61
2019-02-05T14:09:21.561Z,71.83
2019-02-05T14:11:56.694Z,71.91
2019-02-05T14:14:27.192Z,71.58
2019-02-05T14:16:58.034Z,72.01
2019-02-05T14:19:28.770Z,71.81
2019-02-05T14:22:00.780Z,71.87
2019-02-05T14:24:48.457Z,72.13
2019-02-05T14:27:33.231Z,72.11
2019-02-05T14:30:06.436Z,71.98
2019-02-05T14:33:14.752Z,71.84
2019-02-05T14:35:18.690Z,72.08
2019-02-05T14:37:55.176Z,72.13
2019-02-05T14:40:27.771Z,72.17
2019-02-05T14:42:58.410Z,72.35
2019-02-05T14:45:29.802Z,72.50
2019-02-05T14:48:03.196Z,72.53
2019-02-05T14:50:40.165Z,72.46
2019-02-05T14:53:16.341Z,72.51
2019-02-05T14:55:53.305Z,72.61
2019-02-05T14:58:27.357Z,72.50
2019-02-05T15:00:57.922Z,72.62
2019-02-05T15:03:28.743Z,72.67
2019-02-05T15:05:59.059Z,72.73
2019-02-05T15:08:31.305Z,72.72
2019-02-05T15:11:03.392Z,72.74
2019-02-05T15:13:36.643Z,72.85
2019-02-05T15:16:13.463Z,72.88
2019-02-05T15:18:45.001Z,72.96
2019-02-05T15:21:14.636Z,72.72
2019-02-05T15:23:45.068Z,72.83
2019-02-05T15:26:43.080Z,72.90
2019-02-05T15:29:28.155Z,72.84
2019-02-05T15:32:02.999Z,73.01
2019-02-05T15:34:34.034Z,72.96
2019-02-05T15:37:12.375Z,72.98
2019-02-05T15:39:46.183Z,73.02
2019-02-05T15:42:17.040Z,73.00
2019-02-05T15:44:47.655Z,73.12
2019-02-05T15:47:18.731Z,73.11
2019-02-05T15:50:05.851Z,73.20
2019-02-05T15:52:36.125Z,73.38
2019-02-05T15:55:10.577Z,73.36
2019-02-05T15:57:43.922Z,73.43
2019-02-05T16:00:17.055Z,73.40
2019-02-05T16:02:47.699Z,73.43
2019-02-05T16:05:18.614Z,73.43
2019-02-05T16:07:53.066Z,73.69
2019-02-05T16:10:25.742Z,73.67
2019-02-05T16:13:20.328Z,73.74
2019-02-05T16:15:58.422Z,73.90
2019-02-05T16:18:36.486Z,73.89
2019-02-05T16:21:07.698Z,73.77
2019-02-05T16:23:38.222Z,73.97
2019-02-05T16:26:09.368Z,73.95
2019-02-05T16:28:40.723Z,73.85
2019-02-05T16:31:11.213Z,73.93
2019-02-05T16:33:47.991Z,74.08
2019-02-05T16:36:24.974Z,74.15
2019-02-05T16:38:59.566Z,73.95
2019-02-05T16:41:42.081Z,73.95
2019-02-05T16:44:19.629Z,74.00
2019-02-05T16:46:48.638Z,73.99
2019-02-05T16:49:22.207Z,74.17
2019-02-05T16:51:53.151Z,74.32
2019-02-05T16:54:24.317Z,74.55
2019-02-05T16:56:58.104Z,74.56
2019-02-05T16:59:44.969Z,74.66
2019-02-05T17:02:28.648Z,74.71
2019-02-05T17:04:57.513Z,74.93
2019-02-05T17:07:28.129Z,75.07
2019-02-05T17:09:58.633Z,75.16
2019-02-05T17:12:36.597Z,75.25
2019-02-05T17:15:17.740Z,75.47
2019-02-05T17:18:01.505Z,75.50
2019-02-05T17:20:54.525Z,75.48
2019-02-05T17:23:30.208Z,75.48
2019-02-05T17:26:02.144Z,75.61
2019-02-05T17:28:36.517Z,75.78
2019-02-05T17:31:07.648Z,75.94
2019-02-05T17:33:38.704Z,76.19
2019-02-05T17:36:11.802Z,76.25
2019-02-05T17:38:43.890Z,76.38
2019-02-05T17:41:20.741Z,76.52
2019-02-05T17:44:14.903Z,76.58
2019-02-05T17:46:50.881Z,76.50
2019-02-05T17:49:31.942Z,76.48
2019-02-05T17:52:05.559Z,76.42
2019-02-05T17:54:43.893Z,76.31
2019-02-05T17:57:25.384Z,76.18
2019-02-05T18:00:07.438Z,76.14
2019-02-05T18:02:35.044Z,76.18
2019-02-05T18:05:09.987Z,76.18
2019-02-05T18:07:40.823Z,76.16
2019-02-05T18:10:13.175Z,76.17
2019-02-05T18:12:50.839Z,76.13
2019-02-05T18:15:31.367Z,76.18
2019-02-05T18:18:13.923Z,76.23
2019-02-05T18:20:57.359Z,76.28
2019-02-05T18:23:45.706Z,76.09
2019-02-05T18:26:28.018Z,76.08
2019-02-05T18:28:53.794Z,76.02
2019-02-05T18:31:24.994Z,75.84
2019-02-05T18:34:04.613Z,75.82
2019-02-05T18:36:49.743Z,76.02
2019-02-05T18:39:23.842Z,76.10
2019-02-05T18:42:07.521Z,76.34
2019-02-05T18:44:48.011Z,76.42
2019-02-05T18:47:36.779Z,76.63
2019-02-05T18:50:22.271Z,76.79
2019-02-05T18:53:04.558Z,77.05
2019-02-05T18:55:36.854Z,77.32
2019-02-05T18:58:32.083Z,77.56
2019-02-05T19:01:04.954Z,77.70
2019-02-05T19:03:43.830Z,78.05
2019-02-05T19:06:22.475Z,78.08
2019-02-05T19:08:59.429Z,78.13
2019-02-05T19:11:31.486Z,78.18
2019-02-05T19:14:01.885Z,78.29
2019-02-05T19:16:32.555Z,78.35
2019-02-05T19:19:14.512Z,78.47
2019-02-05T19:21:53.710Z,78.48
2019-02-05T19:24:57.525Z,78.57
2019-02-05T19:27:30.174Z,78.64
2019-02-05T19:30:07.168Z,78.67
2019-02-05T19:32:57.833Z,78.83
2019-02-05T19:35:39.403Z,78.94
2019-02-05T19:38:20.260Z,79.08
2019-02-05T19:41:08.761Z,79.33
2019-02-05T19:43:47.824Z,79.37
2019-02-05T19:47:01.355Z,79.59
2019-02-05T19:49:34.246Z,79.64
2019-02-05T19:52:06.062Z,79.71
2019-02-05T19:54:44.187Z,79.83
2019-02-05T19:57:28.627Z,80.07
2019-02-05T20:00:15.829Z,80.58
2019-02-05T20:02:39.530Z,80.85
2019-02-05T20:05:16.511Z,81.07
2019-02-05T20:07:48.870Z,81.37
2019-02-05T20:10:19.537Z,81.56
2019-02-05T20:12:55.503Z,81.83
2019-02-05T20:15:26.318Z,82.36
2019-02-05T20:17:58.372Z,82.70
2019-02-05T20:20:44.257Z,82.85
2019-02-05T20:23:23.655Z,83.23
2019-02-05T20:26:20.038Z,83.23
2019-02-05T20:29:04.232Z,82.84
2019-02-05T20:31:46.292Z,82.91
2019-02-05T20:34:46.145Z,83.00
2019-02-05T20:37:13.917Z,83.06
2019-02-05T20:40:08.038Z,83.09
2019-02-05T20:42:52.609Z,83.03
2019-02-05T20:45:30.314Z,82.86
2019-02-05T20:48:03.465Z,82.81
2019-02-05T20:50:35.897Z,82.72
2019-02-05T20:53:13.972Z,82.63
2019-02-05T20:55:42.966Z,82.48
2019-02-05T20:58:13.482Z,82.36
2019-02-05T21:00:44.669Z,82.26
2019-02-05T21:03:19.908Z,82.22
2019-02-05T21:05:54.912Z,82.29
2019-02-05T21:08:27.854Z,82.45
2019-02-05T21:11:09.839Z,82.59
2019-02-05T21:14:06.843Z,82.62
2019-02-05T21:16:57.894Z,82.87
2019-02-05T21:19:22.344Z,83.02
2019-02-05T21:21:59.009Z,83.17
2019-02-05T21:24:31.356Z,83.29
2019-02-05T21:27:04.832Z,83.34
2019-02-05T21:29:35.250Z,83.43
2019-02-05T21:32:07.170Z,83.49
2019-02-05T21:34:43.024Z,83.52
2019-02-05T21:37:30.686Z,83.59
2019-02-05T21:40:08.783Z,83.71
2019-02-05T21:42:41.131Z,83.72
2019-02-05T21:45:38.675Z,83.76
2019-02-05T21:48:04.296Z,83.83
2019-02-05T21:50:44.539Z,83.90
2019-02-05T21:53:24.396Z,83.98
2019-02-05T21:55:53.948Z,84.06
2019-02-05T21:58:31.875Z,84.15
2019-02-05T22:01:02.681Z,84.23
2019-02-05T22:03:34.432Z,84.29
2019-02-05T22:06:08.154Z,84.30
2019-02-05T22:08:46.118Z,84.30
2019-02-05T22:11:33.209Z,84.38
2019-02-05T22:14:05.014Z,84.38
2019-02-05T22:16:47.696Z,84.28
2019-02-05T22:19:32.493Z,84.29
2019-02-05T22:22:29.791Z,84.29
2019-02-05T22:25:14.696Z,84.27
2019-02-05T22:27:53.101Z,84.31
2019-02-05T22:30:38.033Z,84.32
2019-02-05T22:33:19.294Z,84.32
2019-02-05T22:36:08.526Z,84.19
2019-02-05T22:38:34.434Z,84.40
2019-02-05T22:41:14.497Z,84.50
2019-02-05T22:44:27.225Z,84.55
2019-02-05T22:46:25.732Z,84.56
2019-02-05T22:48:57.498Z,84.64
2019-02-05T22:51:28.016Z,84.67
2019-02-05T22:53:58.393Z,84.70
2019-02-05T22:56:36.116Z,84.70
2019-02-05T22:59:15.113Z,84.75
2019-02-05T23:02:00.183Z,84.83
2019-02-05T23:05:13.568Z,84.86
2019-02-05T23:07:44.234Z,84.92
2019-02-05T23:11:03.031Z,84.97
2019-02-05T23:13:24.923Z,85.02
2019-02-05T23:15:56.090Z,85.05
2019-02-05T23:18:29.079Z,85.08
2019-02-05T23:21:03.881Z,85.05
2019-02-05T23:23:38.367Z,85.04
2019-02-05T23:29:05.084Z,85.07
2019-02-05T23:31:42.812Z,85.05
2019-02-05T23:34:15.344Z,85.05
2019-02-05T23:36:45.669Z,85.07
2019-02-05T23:39:17.494Z,85.04
2019-02-05T23:41:48.110Z,85.09
2019-02-05T23:44:28.779Z,85.07
2019-02-05T23:47:03.786Z,85.00
2019-02-05T23:49:40.497Z,85.00
2019-02-05T23:52:12.803Z,85.04
2019-02-05T23:54:46.543Z,85.04
2019-02-05T23:57:18.810Z,85.03
2019-02-05T23:59:49.174Z,85.04
